sensor_id;sensor_type;location;lat;lon;timestamp;temperature;humidity
1137;DHT22;557;48.466;7.950;2023-03-24T00:01:21;15.00;44.80
1137;DHT22;557;48.466;7.950;2023-03-24T00:04:10;15.00;99.90
1137;DHT22;557;48.466;7.950;2023-03-24T00:06:57;14.90;99.90
1137;DHT22;557;48.466;7.950;2023-03-24T00:09:46;14.90;99.90
1137;DHT22;557;48.466;7.950;2023-03-24T00:12:34;14.90;99.90
1137;DHT22;557;48.466;7.950;2023-03-24T00:15:24;14.90;87.90
1137;DHT22;557;48.466;7.950;2023-03-24T00:18:11;14.80;99.90
1137;DHT22;557;48.466;7.950;2023-03-24T00:21:00;14.70;99.90
1137;DHT22;557;48.466;7.950;2023-03-24T00:23:47;14.60;1.00
1137;DHT22;557;48.466;7.950;2023-03-24T00:26:36;14.50;1.00
1137;DHT22;557;48.466;7.950;2023-03-24T00:29:24;14.50;1.00
1137;DHT22;557;48.466;7.950;2023-03-24T00:32:12;14.50;1.00
1137;DHT22;557;48.466;7.950;2023-03-24T00:34:59;14.50;99.90
1137;DHT22;557;48.466;7.950;2023-03-24T00:37:48;14.60;99.90
1137;DHT22;557;48.466;7.950;2023-03-24T00:40:36;14.70;99.90
1137;DHT22;557;48.466;7.950;2023-03-24T00:43:24;14.80;25.30
1137;DHT22;557;48.466;7.950;2023-03-24T00:46:13;14.90;2.80
1137;DHT22;557;48.466;7.950;2023-03-24T00:49:13;15.00;1.00
1137;DHT22;557;48.466;7.950;2023-03-24T00:52:02;15.10;1.00
1137;DHT22;557;48.466;7.950;2023-03-24T00:54:56;15.10;1.00
1137;DHT22;557;48.466;7.950;2023-03-24T00:57:45;15.10;1.00
1137;DHT22;557;48.466;7.950;2023-03-24T01:00:35;15.00;1.00
1137;DHT22;557;48.466;7.950;2023-03-24T01:03:27;15.00;1.00
1137;DHT22;557;48.466;7.950;2023-03-24T01:06:14;15.00;1.00
1137;DHT22;557;48.466;7.950;2023-03-24T01:09:03;14.90;1.00
1137;DHT22;557;48.466;7.950;2023-03-24T01:11:52;14.90;1.00
1137;DHT22;557;48.466;7.950;2023-03-24T01:14:39;14.90;1.00
1137;DHT22;557;48.466;7.950;2023-03-24T01:17:27;14.90;2.00
1137;DHT22;557;48.466;7.950;2023-03-24T01:20:16;14.90;1.00
1137;DHT22;557;48.466;7.950;2023-03-24T01:23:04;15.00;1.00
1137;DHT22;557;48.466;7.950;2023-03-24T01:25:52;15.00;1.00
1137;DHT22;557;48.466;7.950;2023-03-24T01:28:41;15.00;1.00
1137;DHT22;557;48.466;7.950;2023-03-24T01:31:28;15.00;1.00
1137;DHT22;557;48.466;7.950;2023-03-24T01:34:16;15.10;1.00
1137;DHT22;557;48.466;7.950;2023-03-24T01:37:04;15.20;1.00
1137;DHT22;557;48.466;7.950;2023-03-24T01:39:51;15.20;1.00
1137;DHT22;557;48.466;7.950;2023-03-24T01:42:39;15.30;1.00
1137;DHT22;557;48.466;7.950;2023-03-24T01:45:44;15.30;1.00
1137;DHT22;557;48.466;7.950;2023-03-24T01:48:37;15.40;1.00
1137;DHT22;557;48.466;7.950;2023-03-24T01:51:28;15.40;99.90
1137;DHT22;557;48.466;7.950;2023-03-24T01:54:22;15.60;99.90
1137;DHT22;557;48.466;7.950;2023-03-24T01:57:13;15.60;99.90
1137;DHT22;557;48.466;7.950;2023-03-24T02:00:08;15.60;99.90
1137;DHT22;557;48.466;7.950;2023-03-24T02:03:00;15.70;99.90
1137;DHT22;557;48.466;7.950;2023-03-24T02:05:53;15.70;99.90
1137;DHT22;557;48.466;7.950;2023-03-24T02:08:47;15.60;99.90
1137;DHT22;557;48.466;7.950;2023-03-24T02:11:37;15.60;99.90
1137;DHT22;557;48.466;7.950;2023-03-24T02:14:24;15.50;99.90
1137;DHT22;557;48.466;7.950;2023-03-24T02:17:33;15.40;99.90
1137;DHT22;557;48.466;7.950;2023-03-24T02:20:42;15.40;99.90
1137;DHT22;557;48.466;7.950;2023-03-24T02:27:04;15.50;99.90
1137;DHT22;557;48.466;7.950;2023-03-24T02:30:47;15.40;99.90
1137;DHT22;557;48.466;7.950;2023-03-24T02:34:09;15.30;1.00
1137;DHT22;557;48.466;7.950;2023-03-24T02:37:22;15.20;1.00
1137;DHT22;557;48.466;7.950;2023-03-24T02:40:27;15.10;1.00
1137;DHT22;557;48.466;7.950;2023-03-24T02:43:32;15.00;1.00
1137;DHT22;557;48.466;7.950;2023-03-24T02:46:26;15.00;1.00
1137;DHT22;557;48.466;7.950;2023-03-24T02:49:21;14.90;1.00
1137;DHT22;557;48.466;7.950;2023-03-24T02:52:17;14.90;1.00
1137;DHT22;557;48.466;7.950;2023-03-24T02:55:11;14.90;1.00
1137;DHT22;557;48.466;7.950;2023-03-24T02:58:05;15.00;1.00
1137;DHT22;557;48.466;7.950;2023-03-24T03:00:56;14.90;1.00
1137;DHT22;557;48.466;7.950;2023-03-24T03:03:47;15.00;1.00
1137;DHT22;557;48.466;7.950;2023-03-24T03:06:37;15.00;1.00
1137;DHT22;557;48.466;7.950;2023-03-24T03:09:27;15.10;1.00
1137;DHT22;557;48.466;7.950;2023-03-24T03:12:17;15.10;1.00
1137;DHT22;557;48.466;7.950;2023-03-24T03:15:10;15.10;1.00
1137;DHT22;557;48.466;7.950;2023-03-24T03:18:05;15.00;1.00
1137;DHT22;557;48.466;7.950;2023-03-24T03:20:57;15.00;1.00
1137;DHT22;557;48.466;7.950;2023-03-24T03:23:49;15.10;1.00
1137;DHT22;557;48.466;7.950;2023-03-24T03:26:37;15.30;99.90
1137;DHT22;557;48.466;7.950;2023-03-24T03:29:28;15.70;99.90
1137;DHT22;557;48.466;7.950;2023-03-24T03:32:24;16.30;99.90
1137;DHT22;557;48.466;7.950;2023-03-24T03:35:15;16.60;99.90
1137;DHT22;557;48.466;7.950;2023-03-24T03:38:09;16.80;99.90
1137;DHT22;557;48.466;7.950;2023-03-24T03:41:01;16.80;99.90
1137;DHT22;557;48.466;7.950;2023-03-24T03:43:49;16.90;99.90
1137;DHT22;557;48.466;7.950;2023-03-24T03:46:37;16.90;99.90
1137;DHT22;557;48.466;7.950;2023-03-24T03:49:26;16.80;99.90
1137;DHT22;557;48.466;7.950;2023-03-24T03:52:14;16.80;99.90
1137;DHT22;557;48.466;7.950;2023-03-24T03:55:04;16.70;99.90
1137;DHT22;557;48.466;7.950;2023-03-24T03:57:53;16.60;99.90
1137;DHT22;557;48.466;7.950;2023-03-24T04:00:41;16.60;99.90
1137;DHT22;557;48.466;7.950;2023-03-24T04:03:40;16.60;99.90
1137;DHT22;557;48.466;7.950;2023-03-24T04:06:40;16.60;99.90
1137;DHT22;557;48.466;7.950;2023-03-24T04:09:36;16.70;99.90
1137;DHT22;557;48.466;7.950;2023-03-24T04:12:44;16.80;99.90
1137;DHT22;557;48.466;7.950;2023-03-24T04:15:35;16.70;99.90
1137;DHT22;557;48.466;7.950;2023-03-24T04:18:43;16.60;99.90
1137;DHT22;557;48.466;7.950;2023-03-24T04:21:46;16.10;99.90
1137;DHT22;557;48.466;7.950;2023-03-24T04:24:41;15.80;99.90
1137;DHT22;557;48.466;7.950;2023-03-24T04:27:37;15.40;1.00
1137;DHT22;557;48.466;7.950;2023-03-24T04:30:31;14.90;1.00
1137;DHT22;557;48.466;7.950;2023-03-24T04:33:28;14.50;99.90
1137;DHT22;557;48.466;7.950;2023-03-24T04:36:24;14.20;99.90
1137;DHT22;557;48.466;7.950;2023-03-24T04:39:17;14.10;12.40
1137;DHT22;557;48.466;7.950;2023-03-24T04:42:14;13.90;1.00
1137;DHT22;557;48.466;7.950;2023-03-24T04:45:08;13.80;1.00
1137;DHT22;557;48.466;7.950;2023-03-24T04:48:00;13.60;1.00
1137;DHT22;557;48.466;7.950;2023-03-24T04:50:53;13.50;1.00
1137;DHT22;557;48.466;7.950;2023-03-24T04:53:40;13.50;1.00
1137;DHT22;557;48.466;7.950;2023-03-24T04:56:33;13.40;1.00
1137;DHT22;557;48.466;7.950;2023-03-24T04:59:23;13.40;41.60
1137;DHT22;557;48.466;7.950;2023-03-24T05:02:11;13.40;1.00
1137;DHT22;557;48.466;7.950;2023-03-24T05:04:58;13.30;31.30
1137;DHT22;557;48.466;7.950;2023-03-24T05:07:46;13.30;17.00
1137;DHT22;557;48.466;7.950;2023-03-24T05:10:34;13.30;53.10
1137;DHT22;557;48.466;7.950;2023-03-24T05:13:23;13.30;9.30
1137;DHT22;557;48.466;7.950;2023-03-24T05:16:10;13.20;24.20
1137;DHT22;557;48.466;7.950;2023-03-24T05:18:58;13.30;22.00
1137;DHT22;557;48.466;7.950;2023-03-24T05:21:46;13.30;23.60
1137;DHT22;557;48.466;7.950;2023-03-24T05:24:34;13.30;4.20
1137;DHT22;557;48.466;7.950;2023-03-24T05:27:21;13.30;10.60
1137;DHT22;557;48.466;7.950;2023-03-24T05:30:11;13.40;1.00
1137;DHT22;557;48.466;7.950;2023-03-24T05:32:58;13.50;1.00
1137;DHT22;557;48.466;7.950;2023-03-24T05:35:45;13.60;1.00
1137;DHT22;557;48.466;7.950;2023-03-24T05:38:32;13.70;1.00
1137;DHT22;557;48.466;7.950;2023-03-24T05:41:20;13.70;1.00
1137;DHT22;557;48.466;7.950;2023-03-24T05:44:07;13.70;1.00
1137;DHT22;557;48.466;7.950;2023-03-24T05:46:56;13.70;1.00
1137;DHT22;557;48.466;7.950;2023-03-24T05:49:43;13.70;1.00
1137;DHT22;557;48.466;7.950;2023-03-24T05:52:30;13.60;13.00
1137;DHT22;557;48.466;7.950;2023-03-24T05:55:18;13.60;24.00
1137;DHT22;557;48.466;7.950;2023-03-24T05:58:06;13.50;30.30
1137;DHT22;557;48.466;7.950;2023-03-24T06:00:54;13.50;59.70
1137;DHT22;557;48.466;7.950;2023-03-24T06:03:43;13.50;72.80
1137;DHT22;557;48.466;7.950;2023-03-24T06:06:31;13.40;99.00
1137;DHT22;557;48.466;7.950;2023-03-24T06:09:18;13.30;99.90
1137;DHT22;557;48.466;7.950;2023-03-24T06:12:07;13.30;99.90
1137;DHT22;557;48.466;7.950;2023-03-24T06:14:55;13.30;99.90
1137;DHT22;557;48.466;7.950;2023-03-24T06:17:43;13.30;99.90
1137;DHT22;557;48.466;7.950;2023-03-24T06:20:33;13.20;99.90
1137;DHT22;557;48.466;7.950;2023-03-24T06:23:21;13.20;99.90
1137;DHT22;557;48.466;7.950;2023-03-24T06:26:12;13.10;99.90
1137;DHT22;557;48.466;7.950;2023-03-24T06:28:59;13.00;99.90
1137;DHT22;557;48.466;7.950;2023-03-24T06:31:47;12.90;99.90
1137;DHT22;557;48.466;7.950;2023-03-24T06:34:35;12.80;99.90
1137;DHT22;557;48.466;7.950;2023-03-24T06:37:25;12.70;99.90
1137;DHT22;557;48.466;7.950;2023-03-24T06:40:13;12.70;99.90
1137;DHT22;557;48.466;7.950;2023-03-24T06:43:02;12.60;99.90
1137;DHT22;557;48.466;7.950;2023-03-24T06:45:49;12.60;99.90
1137;DHT22;557;48.466;7.950;2023-03-24T06:48:37;12.50;99.90
1137;DHT22;557;48.466;7.950;2023-03-24T06:51:24;12.60;99.90
1137;DHT22;557;48.466;7.950;2023-03-24T06:54:13;12.60;99.90
1137;DHT22;557;48.466;7.950;2023-03-24T06:57:01;12.50;99.90
1137;DHT22;557;48.466;7.950;2023-03-24T06:59:48;12.60;99.90
1137;DHT22;557;48.466;7.950;2023-03-24T07:02:36;12.60;99.90
1137;DHT22;557;48.466;7.950;2023-03-24T07:05:23;12.60;99.90
1137;DHT22;557;48.466;7.950;2023-03-24T07:08:11;12.60;99.90
1137;DHT22;557;48.466;7.950;2023-03-24T07:11:00;12.60;99.90
1137;DHT22;557;48.466;7.950;2023-03-24T07:13:48;12.60;99.90
1137;DHT22;557;48.466;7.950;2023-03-24T07:16:36;12.60;99.90
1137;DHT22;557;48.466;7.950;2023-03-24T07:19:23;12.60;99.90
1137;DHT22;557;48.466;7.950;2023-03-24T07:22:10;12.60;99.90
1137;DHT22;557;48.466;7.950;2023-03-24T07:24:58;12.70;99.90
1137;DHT22;557;48.466;7.950;2023-03-24T07:27:52;12.70;99.90
1137;DHT22;557;48.466;7.950;2023-03-24T07:30:39;12.70;99.90
1137;DHT22;557;48.466;7.950;2023-03-24T07:33:27;12.70;99.90
1137;DHT22;557;48.466;7.950;2023-03-24T07:36:14;12.80;99.90
1137;DHT22;557;48.466;7.950;2023-03-24T07:39:02;12.80;99.90
1137;DHT22;557;48.466;7.950;2023-03-24T07:41:51;12.90;99.90
1137;DHT22;557;48.466;7.950;2023-03-24T07:44:40;12.90;99.90
1137;DHT22;557;48.466;7.950;2023-03-24T07:47:27;12.90;99.90
1137;DHT22;557;48.466;7.950;2023-03-24T07:50:14;13.00;99.90
1137;DHT22;557;48.466;7.950;2023-03-24T07:53:02;13.00;99.90
1137;DHT22;557;48.466;7.950;2023-03-24T07:55:49;13.10;99.90
1137;DHT22;557;48.466;7.950;2023-03-24T07:58:36;13.10;99.90
1137;DHT22;557;48.466;7.950;2023-03-24T08:01:25;13.20;99.90
1137;DHT22;557;48.466;7.950;2023-03-24T08:04:13;13.10;99.90
1137;DHT22;557;48.466;7.950;2023-03-24T08:07:00;13.20;99.90
1137;DHT22;557;48.466;7.950;2023-03-24T08:09:48;13.20;99.90
1137;DHT22;557;48.466;7.950;2023-03-24T08:12:35;13.20;99.90
1137;DHT22;557;48.466;7.950;2023-03-24T08:15:22;13.20;99.90
1137;DHT22;557;48.466;7.950;2023-03-24T08:18:12;13.30;99.90
1137;DHT22;557;48.466;7.950;2023-03-24T08:20:59;13.20;99.90
1137;DHT22;557;48.466;7.950;2023-03-24T08:23:47;13.30;99.90
1137;DHT22;557;48.466;7.950;2023-03-24T08:26:35;13.30;99.90
1137;DHT22;557;48.466;7.950;2023-03-24T08:29:22;13.40;99.90
1137;DHT22;557;48.466;7.950;2023-03-24T08:32:09;13.40;99.90
1137;DHT22;557;48.466;7.950;2023-03-24T08:34:58;13.50;99.90
1137;DHT22;557;48.466;7.950;2023-03-24T08:37:45;13.50;82.90
1137;DHT22;557;48.466;7.950;2023-03-24T08:40:33;13.60;83.30
1137;DHT22;557;48.466;7.950;2023-03-24T08:43:21;13.60;93.80
1137;DHT22;557;48.466;7.950;2023-03-24T08:46:09;13.80;55.50
1137;DHT22;557;48.466;7.950;2023-03-24T08:48:57;13.80;49.90
1137;DHT22;557;48.466;7.950;2023-03-24T08:51:46;13.90;31.50
1137;DHT22;557;48.466;7.950;2023-03-24T08:54:34;13.90;38.70
1137;DHT22;557;48.466;7.950;2023-03-24T08:57:22;13.90;31.80
1137;DHT22;557;48.466;7.950;2023-03-24T09:00:10;13.90;46.60
1137;DHT22;557;48.466;7.950;2023-03-24T09:03:00;13.90;59.50
1137;DHT22;557;48.466;7.950;2023-03-24T09:05:48;13.90;50.20
1137;DHT22;557;48.466;7.950;2023-03-24T09:08:37;13.90;40.70
1137;DHT22;557;48.466;7.950;2023-03-24T09:11:24;14.00;51.00
1137;DHT22;557;48.466;7.950;2023-03-24T09:14:11;14.00;36.60
1137;DHT22;557;48.466;7.950;2023-03-24T09:16:59;14.10;1.00
1137;DHT22;557;48.466;7.950;2023-03-24T09:19:46;14.10;36.10
1137;DHT22;557;48.466;7.950;2023-03-24T09:22:35;14.10;18.50
1137;DHT22;557;48.466;7.950;2023-03-24T09:25:24;14.10;13.10
1137;DHT22;557;48.466;7.950;2023-03-24T09:28:11;14.10;1.00
1137;DHT22;557;48.466;7.950;2023-03-24T09:31:03;14.20;1.00
1137;DHT22;557;48.466;7.950;2023-03-24T09:33:50;14.20;2.20
1137;DHT22;557;48.466;7.950;2023-03-24T09:36:38;14.30;1.00
1137;DHT22;557;48.466;7.950;2023-03-24T09:39:25;14.30;1.00
1137;DHT22;557;48.466;7.950;2023-03-24T09:42:21;14.30;1.00
1137;DHT22;557;48.466;7.950;2023-03-24T09:45:13;14.40;1.00
1137;DHT22;557;48.466;7.950;2023-03-24T09:48:04;14.50;1.00
1137;DHT22;557;48.466;7.950;2023-03-24T09:50:57;14.50;1.00
1137;DHT22;557;48.466;7.950;2023-03-24T09:53:54;14.60;1.00
1137;DHT22;557;48.466;7.950;2023-03-24T09:56:45;14.70;1.00
1137;DHT22;557;48.466;7.950;2023-03-24T09:59:37;14.70;1.00
1137;DHT22;557;48.466;7.950;2023-03-24T10:02:27;14.70;1.00
1137;DHT22;557;48.466;7.950;2023-03-24T10:05:17;14.60;1.00
1137;DHT22;557;48.466;7.950;2023-03-24T10:08:13;14.50;1.00
1137;DHT22;557;48.466;7.950;2023-03-24T10:11:05;14.50;1.00
1137;DHT22;557;48.466;7.950;2023-03-24T10:14:04;14.50;1.00
1137;DHT22;557;48.466;7.950;2023-03-24T10:17:01;14.50;1.00
1137;DHT22;557;48.466;7.950;2023-03-24T10:19:54;14.40;1.00
1137;DHT22;557;48.466;7.950;2023-03-24T10:22:49;14.40;1.00
1137;DHT22;557;48.466;7.950;2023-03-24T10:25:46;14.40;1.00
1137;DHT22;557;48.466;7.950;2023-03-24T10:28:40;14.50;1.00
1137;DHT22;557;48.466;7.950;2023-03-24T10:31:31;14.50;1.00
1137;DHT22;557;48.466;7.950;2023-03-24T10:34:27;14.50;1.00
1137;DHT22;557;48.466;7.950;2023-03-24T10:37:15;14.50;99.90
1137;DHT22;557;48.466;7.950;2023-03-24T10:40:14;14.50;1.00
1137;DHT22;557;48.466;7.950;2023-03-24T10:43:05;14.60;1.00
1137;DHT22;557;48.466;7.950;2023-03-24T10:45:54;14.60;99.90
1137;DHT22;557;48.466;7.950;2023-03-24T10:48:43;14.60;99.90
1137;DHT22;557;48.466;7.950;2023-03-24T10:51:33;14.70;99.90
1137;DHT22;557;48.466;7.950;2023-03-24T10:54:22;14.80;99.90
1137;DHT22;557;48.466;7.950;2023-03-24T10:57:16;14.80;99.90
1137;DHT22;557;48.466;7.950;2023-03-24T11:00:06;14.80;1.00
1137;DHT22;557;48.466;7.950;2023-03-24T11:03:00;14.70;47.60
1137;DHT22;557;48.466;7.950;2023-03-24T11:05:48;14.70;16.70
1137;DHT22;557;48.466;7.950;2023-03-24T11:08:38;14.60;18.00
1137;DHT22;557;48.466;7.950;2023-03-24T11:11:31;14.40;99.90
1137;DHT22;557;48.466;7.950;2023-03-24T11:14:21;14.30;99.90
1137;DHT22;557;48.466;7.950;2023-03-24T11:17:12;14.30;1.00
1137;DHT22;557;48.466;7.950;2023-03-24T11:20:01;14.10;1.00
1137;DHT22;557;48.466;7.950;2023-03-24T11:22:58;14.00;1.00
1137;DHT22;557;48.466;7.950;2023-03-24T11:25:53;14.00;1.00
1137;DHT22;557;48.466;7.950;2023-03-24T11:28:50;13.70;1.00
1137;DHT22;557;48.466;7.950;2023-03-24T11:31:38;13.40;21.70
1137;DHT22;557;48.466;7.950;2023-03-24T11:34:28;13.20;50.00
1137;DHT22;557;48.466;7.950;2023-03-24T11:37:22;13.10;52.80
1137;DHT22;557;48.466;7.950;2023-03-24T11:40:17;13.00;99.90
1137;DHT22;557;48.466;7.950;2023-03-24T11:43:19;12.90;99.90
1137;DHT22;557;48.466;7.950;2023-03-24T11:46:09;12.80;99.90
1137;DHT22;557;48.466;7.950;2023-03-24T11:48:59;12.80;99.90
1137;DHT22;557;48.466;7.950;2023-03-24T11:51:50;12.80;99.90
1137;DHT22;557;48.466;7.950;2023-03-24T11:54:38;12.80;99.90
1137;DHT22;557;48.466;7.950;2023-03-24T11:57:39;12.90;99.90
1137;DHT22;557;48.466;7.950;2023-03-24T12:00:35;13.00;99.90
1137;DHT22;557;48.466;7.950;2023-03-24T12:03:56;13.10;94.40
1137;DHT22;557;48.466;7.950;2023-03-24T12:06:55;13.20;75.10
1137;DHT22;557;48.466;7.950;2023-03-24T12:09:49;13.30;6.00
1137;DHT22;557;48.466;7.950;2023-03-24T12:12:47;13.30;28.70
1137;DHT22;557;48.466;7.950;2023-03-24T12:15:47;13.40;16.90
1137;DHT22;557;48.466;7.950;2023-03-24T12:19:03;13.40;1.00
1137;DHT22;557;48.466;7.950;2023-03-24T12:22:03;13.30;10.20
1137;DHT22;557;48.466;7.950;2023-03-24T12:25:03;13.20;3.00
1137;DHT22;557;48.466;7.950;2023-03-24T12:27:59;13.30;12.00
1137;DHT22;557;48.466;7.950;2023-03-24T12:31:01;13.30;11.20
1137;DHT22;557;48.466;7.950;2023-03-24T12:33:57;13.40;1.00
1137;DHT22;557;48.466;7.950;2023-03-24T12:36:54;13.40;1.00
1137;DHT22;557;48.466;7.950;2023-03-24T12:39:48;13.50;1.00
1137;DHT22;557;48.466;7.950;2023-03-24T12:42:38;13.50;1.00
1137;DHT22;557;48.466;7.950;2023-03-24T12:45:33;13.40;1.00
1137;DHT22;557;48.466;7.950;2023-03-24T12:48:51;13.40;1.00
1137;DHT22;557;48.466;7.950;2023-03-24T12:51:53;13.40;9.40
1137;DHT22;557;48.466;7.950;2023-03-24T12:54:50;13.30;17.10
1137;DHT22;557;48.466;7.950;2023-03-24T12:57:43;13.30;25.90
1137;DHT22;557;48.466;7.950;2023-03-24T13:00:34;13.30;1.00
1137;DHT22;557;48.466;7.950;2023-03-24T13:03:29;13.30;1.00
1137;DHT22;557;48.466;7.950;2023-03-24T13:06:23;13.30;1.00
1137;DHT22;557;48.466;7.950;2023-03-24T13:09:18;13.30;26.40
1137;DHT22;557;48.466;7.950;2023-03-24T13:12:13;13.10;80.10
1137;DHT22;557;48.466;7.950;2023-03-24T13:15:05;13.10;60.80
1137;DHT22;557;48.466;7.950;2023-03-24T13:18:05;13.10;99.90
1137;DHT22;557;48.466;7.950;2023-03-24T13:20:57;13.00;99.90
1137;DHT22;557;48.466;7.950;2023-03-24T13:23:50;12.90;99.90
1137;DHT22;557;48.466;7.950;2023-03-24T13:26:44;12.90;99.90
1137;DHT22;557;48.466;7.950;2023-03-24T13:30:03;12.90;99.90
1137;DHT22;557;48.466;7.950;2023-03-24T13:32:57;13.00;99.90
1137;DHT22;557;48.466;7.950;2023-03-24T13:36:10;13.00;99.90
1137;DHT22;557;48.466;7.950;2023-03-24T13:39:03;12.90;99.90
1137;DHT22;557;48.466;7.950;2023-03-24T13:41:53;12.80;99.90
1137;DHT22;557;48.466;7.950;2023-03-24T13:44:42;12.70;99.90
1137;DHT22;557;48.466;7.950;2023-03-24T13:47:48;12.60;99.90
1137;DHT22;557;48.466;7.950;2023-03-24T13:50:38;12.40;99.90
1137;DHT22;557;48.466;7.950;2023-03-24T13:53:37;12.30;99.90
1137;DHT22;557;48.466;7.950;2023-03-24T13:56:27;12.20;99.90
1137;DHT22;557;48.466;7.950;2023-03-24T13:59:25;12.00;99.90
1137;DHT22;557;48.466;7.950;2023-03-24T14:02:22;12.00;99.90
1137;DHT22;557;48.466;7.950;2023-03-24T14:05:11;12.00;99.90
1137;DHT22;557;48.466;7.950;2023-03-24T14:08:15;12.00;99.90
1137;DHT22;557;48.466;7.950;2023-03-24T14:14:20;12.00;99.90
1137;DHT22;557;48.466;7.950;2023-03-24T14:17:12;11.90;99.90
1137;DHT22;557;48.466;7.950;2023-03-24T14:20:32;11.90;99.90
1137;DHT22;557;48.466;7.950;2023-03-24T14:23:22;11.80;99.90
1137;DHT22;557;48.466;7.950;2023-03-24T14:26:14;11.80;99.90
1137;DHT22;557;48.466;7.950;2023-03-24T14:29:03;11.80;99.90
1137;DHT22;557;48.466;7.950;2023-03-24T14:31:51;11.70;99.90
1137;DHT22;557;48.466;7.950;2023-03-24T14:34:53;11.50;99.90
1137;DHT22;557;48.466;7.950;2023-03-24T14:37:48;11.40;99.90
1137;DHT22;557;48.466;7.950;2023-03-24T14:40:40;11.30;99.90
1137;DHT22;557;48.466;7.950;2023-03-24T14:43:55;11.30;99.90
1137;DHT22;557;48.466;7.950;2023-03-24T14:46:43;11.30;99.90
1137;DHT22;557;48.466;7.950;2023-03-24T14:49:33;11.30;99.90
1137;DHT22;557;48.466;7.950;2023-03-24T14:52:24;11.50;99.90
1137;DHT22;557;48.466;7.950;2023-03-24T14:55:14;11.70;99.90
1137;DHT22;557;48.466;7.950;2023-03-24T14:58:15;11.90;99.90
1137;DHT22;557;48.466;7.950;2023-03-24T15:01:08;12.10;99.90
1137;DHT22;557;48.466;7.950;2023-03-24T15:04:00;12.40;99.90
1137;DHT22;557;48.466;7.950;2023-03-24T15:06:50;13.20;99.90
1137;DHT22;557;48.466;7.950;2023-03-24T15:09:37;14.60;99.90
1137;DHT22;557;48.466;7.950;2023-03-24T15:12:24;15.80;25.70
1137;DHT22;557;48.466;7.950;2023-03-24T15:15:14;15.40;28.90
1137;DHT22;557;48.466;7.950;2023-03-24T15:18:04;14.50;98.50
1137;DHT22;557;48.466;7.950;2023-03-24T15:20:51;13.90;99.90
1137;DHT22;557;48.466;7.950;2023-03-24T15:23:38;13.40;99.90
1137;DHT22;557;48.466;7.950;2023-03-24T15:26:27;13.70;92.40
1137;DHT22;557;48.466;7.950;2023-03-24T15:29:16;14.00;31.70
1137;DHT22;557;48.466;7.950;2023-03-24T15:32:04;13.50;24.20
1137;DHT22;557;48.466;7.950;2023-03-24T15:34:54;13.10;94.00
1137;DHT22;557;48.466;7.950;2023-03-24T15:37:43;12.80;99.90
1137;DHT22;557;48.466;7.950;2023-03-24T15:41:00;12.60;99.90
1137;DHT22;557;48.466;7.950;2023-03-24T15:43:51;12.50;99.90
1137;DHT22;557;48.466;7.950;2023-03-24T15:46:42;12.40;99.90
1137;DHT22;557;48.466;7.950;2023-03-24T15:49:32;12.30;99.90
1137;DHT22;557;48.466;7.950;2023-03-24T15:52:27;12.40;99.90
1137;DHT22;557;48.466;7.950;2023-03-24T15:55:23;12.70;64.30
1137;DHT22;557;48.466;7.950;2023-03-24T15:58:22;12.80;49.60
1137;DHT22;557;48.466;7.950;2023-03-24T16:01:10;12.80;51.60
1137;DHT22;557;48.466;7.950;2023-03-24T16:04:00;13.20;4.10
1137;DHT22;557;48.466;7.950;2023-03-24T16:06:49;15.10;1.00
1137;DHT22;557;48.466;7.950;2023-03-24T16:09:39;15.30;1.00
1137;DHT22;557;48.466;7.950;2023-03-24T16:12:26;14.40;99.90
1137;DHT22;557;48.466;7.950;2023-03-24T16:15:15;15.10;1.00
1137;DHT22;557;48.466;7.950;2023-03-24T16:18:03;16.50;1.00
1137;DHT22;557;48.466;7.950;2023-03-24T16:20:51;17.30;41.50
1137;DHT22;557;48.466;7.950;2023-03-24T16:23:39;17.80;1.00
1137;DHT22;557;48.466;7.950;2023-03-24T16:26:29;18.10;99.90
1137;DHT22;557;48.466;7.950;2023-03-24T16:29:19;18.60;99.90
1137;DHT22;557;48.466;7.950;2023-03-24T16:32:08;19.60;99.90
1137;DHT22;557;48.466;7.950;2023-03-24T16:34:56;19.20;99.90
1137;DHT22;557;48.466;7.950;2023-03-24T16:37:44;19.20;99.90
1137;DHT22;557;48.466;7.950;2023-03-24T16:40:36;19.20;99.90
1137;DHT22;557;48.466;7.950;2023-03-24T16:43:25;19.60;99.90
1137;DHT22;557;48.466;7.950;2023-03-24T16:46:16;19.20;99.90
1137;DHT22;557;48.466;7.950;2023-03-24T16:49:04;19.10;99.90
1137;DHT22;557;48.466;7.950;2023-03-24T16:51:52;18.00;99.90
1137;DHT22;557;48.466;7.950;2023-03-24T16:54:39;17.70;99.90
1137;DHT22;557;48.466;7.950;2023-03-24T16:57:27;17.50;99.90
1137;DHT22;557;48.466;7.950;2023-03-24T17:00:17;16.90;99.90
1137;DHT22;557;48.466;7.950;2023-03-24T17:03:05;16.80;99.90
1137;DHT22;557;48.466;7.950;2023-03-24T17:05:52;16.00;99.90
1137;DHT22;557;48.466;7.950;2023-03-24T17:08:40;14.70;1.00
1137;DHT22;557;48.466;7.950;2023-03-24T17:11:29;14.20;1.00
1137;DHT22;557;48.466;7.950;2023-03-24T17:14:17;14.10;99.90
1137;DHT22;557;48.466;7.950;2023-03-24T17:17:09;13.90;99.90
1137;DHT22;557;48.466;7.950;2023-03-24T17:19:57;13.60;1.00
1137;DHT22;557;48.466;7.950;2023-03-24T17:22:46;13.30;99.90
1137;DHT22;557;48.466;7.950;2023-03-24T17:25:34;13.10;99.90
1137;DHT22;557;48.466;7.950;2023-03-24T17:28:21;13.00;99.90
1137;DHT22;557;48.466;7.950;2023-03-24T17:31:08;12.80;1.00
1137;DHT22;557;48.466;7.950;2023-03-24T17:33:57;12.80;99.90
1137;DHT22;557;48.466;7.950;2023-03-24T17:36:44;12.70;1.00
1137;DHT22;557;48.466;7.950;2023-03-24T17:39:33;12.70;1.00
1137;DHT22;557;48.466;7.950;2023-03-24T17:42:20;12.60;1.00
1137;DHT22;557;48.466;7.950;2023-03-24T17:45:09;12.50;1.00
1137;DHT22;557;48.466;7.950;2023-03-24T17:47:57;12.50;1.00
1137;DHT22;557;48.466;7.950;2023-03-24T17:50:47;12.50;1.00
1137;DHT22;557;48.466;7.950;2023-03-24T17:53:34;12.40;1.00
1137;DHT22;557;48.466;7.950;2023-03-24T17:56:22;12.50;1.00
1137;DHT22;557;48.466;7.950;2023-03-24T17:59:09;12.50;1.00
1137;DHT22;557;48.466;7.950;2023-03-24T18:01:56;12.30;1.00
1137;DHT22;557;48.466;7.950;2023-03-24T18:04:44;12.00;51.30
1137;DHT22;557;48.466;7.950;2023-03-24T18:07:34;11.70;97.50
1137;DHT22;557;48.466;7.950;2023-03-24T18:10:21;11.60;97.60
1137;DHT22;557;48.466;7.950;2023-03-24T18:13:09;11.50;99.50
1137;DHT22;557;48.466;7.950;2023-03-24T18:15:57;11.50;96.00
1137;DHT22;557;48.466;7.950;2023-03-24T18:18:44;11.50;99.90
1137;DHT22;557;48.466;7.950;2023-03-24T18:21:31;11.50;94.60
1137;DHT22;557;48.466;7.950;2023-03-24T18:24:20;11.40;96.90
1137;DHT22;557;48.466;7.950;2023-03-24T18:27:10;11.50;92.00
1137;DHT22;557;48.466;7.950;2023-03-24T18:29:57;11.40;95.20
1137;DHT22;557;48.466;7.950;2023-03-24T18:32:44;11.40;90.50
1137;DHT22;557;48.466;7.950;2023-03-24T18:35:32;11.40;70.20
1137;DHT22;557;48.466;7.950;2023-03-24T18:38:20;11.40;51.90
1137;DHT22;557;48.466;7.950;2023-03-24T18:41:09;11.50;43.50
1137;DHT22;557;48.466;7.950;2023-03-24T18:43:58;11.40;57.20
1137;DHT22;557;48.466;7.950;2023-03-24T18:46:46;11.40;42.90
1137;DHT22;557;48.466;7.950;2023-03-24T18:49:33;11.40;26.00
1137;DHT22;557;48.466;7.950;2023-03-24T18:52:21;11.40;22.40
1137;DHT22;557;48.466;7.950;2023-03-24T18:55:09;11.40;21.60
1137;DHT22;557;48.466;7.950;2023-03-24T18:57:58;11.40;11.40
1137;DHT22;557;48.466;7.950;2023-03-24T19:00:48;11.30;24.90
1137;DHT22;557;48.466;7.950;2023-03-24T19:03:35;11.20;22.10
1137;DHT22;557;48.466;7.950;2023-03-24T19:06:24;11.20;22.50
1137;DHT22;557;48.466;7.950;2023-03-24T19:09:15;11.20;1.00
1137;DHT22;557;48.466;7.950;2023-03-24T19:12:07;11.20;12.50